Аэропорт: Пашковский. Краснодар

ICAO: URKK

METAR:
2019/01/21 23:00
URKK 212300Z 22003MPS 8000 -SHRA SCT006 BKN023CB 06/05 Q1015 R23L/290156 TEMPO 2000 SHRA BKN007 BKN020CB RMK QFE758
METAR:
2019/01/21 21:21
TAF TAF URKK 211957Z 2121/2221 21008G13MPS 9999 BKN030CB 
      TEMPO 2121/2124 26008G13MPS 3100 -SHRA BKN011 BKN020CB 
      BECMG 2200/2202 36003G08MPS 
      TEMPO 2200/2209 3100 -SHRASN BR BKN011 BKN020CB 
     FM220900 06003G08MPS 9999 SCT015 BKN030